sensor_id;sensor_type;location;lat;lon;timestamp;pressure;altitude;pressure_sealevel;temperature;humidity
10474;BME280;5284;50.446;7.904;2023-05-08T00:00:09;98846.63;;;13.21;100.00
10474;BME280;5284;50.446;7.904;2023-05-08T00:05:15;98848.81;;;12.97;100.00
10474;BME280;5284;50.446;7.904;2023-05-08T00:10:19;98849.13;;;13.04;100.00
10474;BME280;5284;50.446;7.904;2023-05-08T00:15:22;98847.84;;;12.98;100.00
10474;BME280;5284;50.446;7.904;2023-05-08T00:20:26;98848.69;;;12.99;100.00
10474;BME280;5284;50.446;7.904;2023-05-08T00:25:29;98855.81;;;12.89;100.00
10474;BME280;5284;50.446;7.904;2023-05-08T00:30:32;98857.78;;;12.87;100.00
10474;BME280;5284;50.446;7.904;2023-05-08T00:35:36;98843.53;;;12.77;100.00
10474;BME280;5284;50.446;7.904;2023-05-08T00:40:41;98849.97;;;12.74;100.00
10474;BME280;5284;50.446;7.904;2023-05-08T00:45:44;98848.88;;;12.77;100.00
10474;BME280;5284;50.446;7.904;2023-05-08T00:50:49;98850.13;;;12.73;100.00
10474;BME280;5284;50.446;7.904;2023-05-08T00:55:53;98859.16;;;12.72;100.00
10474;BME280;5284;50.446;7.904;2023-05-08T01:00:56;98856.75;;;12.69;100.00
10474;BME280;5284;50.446;7.904;2023-05-08T01:06:01;98854.63;;;12.63;100.00
10474;BME280;5284;50.446;7.904;2023-05-08T01:11:24;98853.47;;;12.65;100.00
10474;BME280;5284;50.446;7.904;2023-05-08T01:16:36;98855.06;;;12.68;100.00
10474;BME280;5284;50.446;7.904;2023-05-08T01:21:45;98859.25;;;12.61;100.00
10474;BME280;5284;50.446;7.904;2023-05-08T01:27:25;98861.34;;;12.57;100.00
10474;BME280;5284;50.446;7.904;2023-05-08T01:32:40;98861.03;;;12.51;100.00
10474;BME280;5284;50.446;7.904;2023-05-08T01:37:49;98866.00;;;12.55;100.00
10474;BME280;5284;50.446;7.904;2023-05-08T01:43:02;98867.78;;;12.45;100.00
10474;BME280;5284;50.446;7.904;2023-05-08T01:48:10;98868.63;;;12.46;100.00
10474;BME280;5284;50.446;7.904;2023-05-08T01:53:20;98877.34;;;12.48;100.00
10474;BME280;5284;50.446;7.904;2023-05-08T01:58:25;98868.88;;;12.43;100.00
10474;BME280;5284;50.446;7.904;2023-05-08T02:03:31;98867.72;;;12.36;100.00
10474;BME280;5284;50.446;7.904;2023-05-08T02:08:36;98868.84;;;12.33;100.00
10474;BME280;5284;50.446;7.904;2023-05-08T02:13:39;98878.69;;;12.33;100.00
10474;BME280;5284;50.446;7.904;2023-05-08T02:18:47;98881.94;;;12.36;100.00
10474;BME280;5284;50.446;7.904;2023-05-08T02:23:53;98878.97;;;12.30;100.00
10474;BME280;5284;50.446;7.904;2023-05-08T02:28:57;98882.16;;;12.24;100.00
10474;BME280;5284;50.446;7.904;2023-05-08T02:34:06;98885.69;;;12.24;100.00
10474;BME280;5284;50.446;7.904;2023-05-08T02:39:14;98886.78;;;12.22;100.00
10474;BME280;5284;50.446;7.904;2023-05-08T02:44:31;98891.28;;;12.21;100.00
10474;BME280;5284;50.446;7.904;2023-05-08T02:49:46;98895.94;;;12.19;100.00
10474;BME280;5284;50.446;7.904;2023-05-08T02:55:02;98893.25;;;12.19;100.00
10474;BME280;5284;50.446;7.904;2023-05-08T03:00:19;98892.38;;;12.10;100.00
10474;BME280;5284;50.446;7.904;2023-05-08T03:05:31;98895.16;;;12.08;100.00
10474;BME280;5284;50.446;7.904;2023-05-08T03:10:39;98883.59;;;12.08;100.00
10474;BME280;5284;50.446;7.904;2023-05-08T03:15:47;98889.34;;;12.03;100.00
10474;BME280;5284;50.446;7.904;2023-05-08T03:20:59;98900.88;;;12.04;100.00
10474;BME280;5284;50.446;7.904;2023-05-08T03:26:09;98902.00;;;12.01;100.00
10474;BME280;5284;50.446;7.904;2023-05-08T03:31:17;98896.69;;;11.90;100.00
10474;BME280;5284;50.446;7.904;2023-05-08T03:36:25;98895.94;;;11.79;100.00
10474;BME280;5284;50.446;7.904;2023-05-08T03:41:34;98908.06;;;11.83;100.00
10474;BME280;5284;50.446;7.904;2023-05-08T03:46:39;98906.38;;;11.82;100.00
10474;BME280;5284;50.446;7.904;2023-05-08T03:51:52;98905.97;;;11.86;100.00
10474;BME280;5284;50.446;7.904;2023-05-08T03:57:03;98908.78;;;11.85;100.00
10474;BME280;5284;50.446;7.904;2023-05-08T04:02:20;98902.00;;;11.81;100.00
10474;BME280;5284;50.446;7.904;2023-05-08T04:07:35;98901.03;;;11.82;100.00
10474;BME280;5284;50.446;7.904;2023-05-08T04:12:50;98912.53;;;11.82;100.00
10474;BME280;5284;50.446;7.904;2023-05-08T04:18:01;98913.00;;;11.87;100.00
10474;BME280;5284;50.446;7.904;2023-05-08T04:23:14;98910.72;;;11.83;100.00
10474;BME280;5284;50.446;7.904;2023-05-08T04:28:25;98910.00;;;11.81;100.00
10474;BME280;5284;50.446;7.904;2023-05-08T04:33:30;98913.78;;;11.78;100.00
10474;BME280;5284;50.446;7.904;2023-05-08T04:38:40;98921.06;;;11.76;100.00
10474;BME280;5284;50.446;7.904;2023-05-08T04:43:46;98924.72;;;11.75;100.00
10474;BME280;5284;50.446;7.904;2023-05-08T04:48:58;98917.94;;;11.71;100.00
10474;BME280;5284;50.446;7.904;2023-05-08T04:54:09;98923.41;;;11.70;100.00
10474;BME280;5284;50.446;7.904;2023-05-08T04:59:15;98934.69;;;11.73;100.00
10474;BME280;5284;50.446;7.904;2023-05-08T05:04:23;98932.41;;;11.69;100.00
10474;BME280;5284;50.446;7.904;2023-05-08T05:09:36;98941.28;;;11.69;100.00
10474;BME280;5284;50.446;7.904;2023-05-08T05:14:48;98942.34;;;11.78;100.00
10474;BME280;5284;50.446;7.904;2023-05-08T05:19:57;98940.44;;;11.89;100.00
10474;BME280;5284;50.446;7.904;2023-05-08T05:25:09;98953.69;;;11.91;100.00
10474;BME280;5284;50.446;7.904;2023-05-08T05:30:18;98948.53;;;11.78;100.00
10474;BME280;5284;50.446;7.904;2023-05-08T05:35:23;98952.63;;;11.82;100.00
10474;BME280;5284;50.446;7.904;2023-05-08T05:40:38;98952.38;;;11.85;100.00
10474;BME280;5284;50.446;7.904;2023-05-08T05:45:45;98955.50;;;11.90;100.00
10474;BME280;5284;50.446;7.904;2023-05-08T05:50:56;98955.84;;;11.97;100.00
10474;BME280;5284;50.446;7.904;2023-05-08T05:56:07;98957.53;;;11.98;100.00
10474;BME280;5284;50.446;7.904;2023-05-08T06:01:18;98963.22;;;12.04;100.00
10474;BME280;5284;50.446;7.904;2023-05-08T06:06:27;98962.97;;;12.07;100.00
10474;BME280;5284;50.446;7.904;2023-05-08T06:11:38;98972.06;;;12.05;100.00
10474;BME280;5284;50.446;7.904;2023-05-08T06:16:51;98965.63;;;12.07;100.00
10474;BME280;5284;50.446;7.904;2023-05-08T06:21:57;98964.91;;;12.05;100.00
10474;BME280;5284;50.446;7.904;2023-05-08T06:27:11;98967.06;;;12.11;100.00
10474;BME280;5284;50.446;7.904;2023-05-08T06:32:18;98967.06;;;12.11;100.00
10474;BME280;5284;50.446;7.904;2023-05-08T06:37:26;98976.22;;;12.09;100.00
10474;BME280;5284;50.446;7.904;2023-05-08T06:42:37;98971.34;;;12.03;100.00
10474;BME280;5284;50.446;7.904;2023-05-08T06:47:47;98963.22;;;12.24;100.00
10474;BME280;5284;50.446;7.904;2023-05-08T06:53:00;98971.91;;;12.37;100.00
10474;BME280;5284;50.446;7.904;2023-05-08T06:58:07;98977.13;;;12.39;100.00
10474;BME280;5284;50.446;7.904;2023-05-08T07:03:19;98984.41;;;12.57;100.00
10474;BME280;5284;50.446;7.904;2023-05-08T07:08:24;98986.50;;;12.54;100.00
10474;BME280;5284;50.446;7.904;2023-05-08T07:13:33;98979.13;;;12.67;100.00
10474;BME280;5284;50.446;7.904;2023-05-08T07:18:38;98978.91;;;12.79;100.00
10474;BME280;5284;50.446;7.904;2023-05-08T07:23:45;98973.75;;;12.87;100.00
10474;BME280;5284;50.446;7.904;2023-05-08T07:28:55;98970.22;;;13.17;100.00
10474;BME280;5284;50.446;7.904;2023-05-08T07:34:00;98975.28;;;13.20;100.00
10474;BME280;5284;50.446;7.904;2023-05-08T07:39:08;98979.66;;;13.21;100.00
10474;BME280;5284;50.446;7.904;2023-05-08T07:44:25;98981.47;;;13.11;100.00
10474;BME280;5284;50.446;7.904;2023-05-08T07:49:39;98979.88;;;12.99;100.00
10474;BME280;5284;50.446;7.904;2023-05-08T07:54:47;98977.03;;;13.30;100.00
10474;BME280;5284;50.446;7.904;2023-05-08T08:00:08;98984.16;;;13.11;100.00
10474;BME280;5284;50.446;7.904;2023-05-08T08:05:15;98984.06;;;12.92;100.00
10474;BME280;5284;50.446;7.904;2023-05-08T08:10:23;98991.97;;;12.93;100.00
10474;BME280;5284;50.446;7.904;2023-05-08T08:15:33;98995.72;;;12.91;100.00
10474;BME280;5284;50.446;7.904;2023-05-08T08:20:39;98992.28;;;13.00;100.00
10474;BME280;5284;50.446;7.904;2023-05-08T08:25:44;98997.44;;;13.12;100.00
10474;BME280;5284;50.446;7.904;2023-05-08T08:30:56;98999.84;;;13.25;100.00
10474;BME280;5284;50.446;7.904;2023-05-08T08:36:01;98999.16;;;13.32;100.00
10474;BME280;5284;50.446;7.904;2023-05-08T08:41:13;99004.84;;;13.39;100.00
10474;BME280;5284;50.446;7.904;2023-05-08T08:46:25;99001.03;;;13.41;100.00
10474;BME280;5284;50.446;7.904;2023-05-08T08:51:36;98995.28;;;13.55;100.00
10474;BME280;5284;50.446;7.904;2023-05-08T08:56:48;98988.50;;;13.61;100.00
10474;BME280;5284;50.446;7.904;2023-05-08T09:02:08;98993.19;;;13.68;100.00
10474;BME280;5284;50.446;7.904;2023-05-08T09:07:18;98982.50;;;13.87;100.00
10474;BME280;5284;50.446;7.904;2023-05-08T09:12:25;98995.50;;;14.10;100.00
10474;BME280;5284;50.446;7.904;2023-05-08T09:17:32;98988.31;;;14.39;100.00
10474;BME280;5284;50.446;7.904;2023-05-08T09:22:56;98993.41;;;14.33;100.00
10474;BME280;5284;50.446;7.904;2023-05-08T09:28:16;98985.16;;;14.63;100.00
10474;BME280;5284;50.446;7.904;2023-05-08T09:33:27;98985.56;;;14.68;100.00
10474;BME280;5284;50.446;7.904;2023-05-08T09:38:40;98992.59;;;14.78;100.00
10474;BME280;5284;50.446;7.904;2023-05-08T09:44:01;98998.78;;;14.98;100.00
10474;BME280;5284;50.446;7.904;2023-05-08T09:49:16;98996.41;;;15.31;100.00
10474;BME280;5284;50.446;7.904;2023-05-08T09:54:28;98987.59;;;15.38;100.00
10474;BME280;5284;50.446;7.904;2023-05-08T09:59:39;98987.84;;;15.45;100.00
10474;BME280;5284;50.446;7.904;2023-05-08T10:04:47;99001.00;;;15.92;100.00
10474;BME280;5284;50.446;7.904;2023-05-08T10:10:00;99000.78;;;16.38;100.00
10474;BME280;5284;50.446;7.904;2023-05-08T10:15:12;99010.00;;;16.71;100.00
10474;BME280;5284;50.446;7.904;2023-05-08T10:20:29;99006.34;;;16.80;100.00
10474;BME280;5284;50.446;7.904;2023-05-08T10:25:35;99001.28;;;16.34;100.00
10474;BME280;5284;50.446;7.904;2023-05-08T10:30:58;99002.47;;;16.39;100.00
10474;BME280;5284;50.446;7.904;2023-05-08T10:36:09;99005.38;;;16.63;100.00
10474;BME280;5284;50.446;7.904;2023-05-08T10:41:15;98991.97;;;17.22;100.00
10474;BME280;5284;50.446;7.904;2023-05-08T10:46:32;98984.72;;;17.30;100.00
10474;BME280;5284;50.446;7.904;2023-05-08T10:51:54;98983.94;;;17.79;100.00
10474;BME280;5284;50.446;7.904;2023-05-08T10:57:10;98985.13;;;17.10;100.00
10474;BME280;5284;50.446;7.904;2023-05-08T11:02:28;98989.56;;;16.43;100.00
10474;BME280;5284;50.446;7.904;2023-05-08T11:08:13;98993.56;;;16.82;100.00
10474;BME280;5284;50.446;7.904;2023-05-08T11:13:18;98991.59;;;16.66;100.00
10474;BME280;5284;50.446;7.904;2023-05-08T11:18:33;98988.22;;;16.64;100.00
10474;BME280;5284;50.446;7.904;2023-05-08T11:24:09;98986.34;;;16.65;100.00
10474;BME280;5284;50.446;7.904;2023-05-08T11:29:19;98986.56;;;16.46;100.00
10474;BME280;5284;50.446;7.904;2023-05-08T11:34:47;98980.72;;;16.50;100.00
10474;BME280;5284;50.446;7.904;2023-05-08T11:45:48;98977.91;;;16.60;100.00
10474;BME280;5284;50.446;7.904;2023-05-08T11:50:55;98980.28;;;16.28;100.00
10474;BME280;5284;50.446;7.904;2023-05-08T11:56:38;98975.78;;;15.93;100.00
10474;BME280;5284;50.446;7.904;2023-05-08T12:01:54;98981.41;;;16.17;100.00
10474;BME280;5284;50.446;7.904;2023-05-08T12:07:12;98990.06;;;15.94;100.00
10474;BME280;5284;50.446;7.904;2023-05-08T12:12:25;98982.22;;;15.83;100.00
10474;BME280;5284;50.446;7.904;2023-05-08T12:18:00;98983.28;;;15.72;100.00
10474;BME280;5284;50.446;7.904;2023-05-08T12:23:10;98976.63;;;15.94;100.00
10474;BME280;5284;50.446;7.904;2023-05-08T12:28:25;98978.47;;;15.93;100.00
10474;BME280;5284;50.446;7.904;2023-05-08T12:33:41;98976.06;;;15.73;100.00
10474;BME280;5284;50.446;7.904;2023-05-08T12:39:08;98972.53;;;15.90;100.00
10474;BME280;5284;50.446;7.904;2023-05-08T12:44:26;98961.94;;;15.88;100.00
10474;BME280;5284;50.446;7.904;2023-05-08T12:49:43;98968.53;;;16.11;100.00
10474;BME280;5284;50.446;7.904;2023-05-08T12:54:56;98967.94;;;16.17;100.00
10474;BME280;5284;50.446;7.904;2023-05-08T13:00:05;98960.25;;;16.40;100.00
10474;BME280;5284;50.446;7.904;2023-05-08T13:05:11;98952.72;;;16.08;100.00
10474;BME280;5284;50.446;7.904;2023-05-08T13:10:23;98960.28;;;16.65;100.00
10474;BME280;5284;50.446;7.904;2023-05-08T13:15:38;98956.81;;;16.73;100.00
10474;BME280;5284;50.446;7.904;2023-05-08T13:20:54;98954.22;;;17.22;100.00
10474;BME280;5284;50.446;7.904;2023-05-08T13:26:05;98943.75;;;17.19;100.00
10474;BME280;5284;50.446;7.904;2023-05-08T13:31:24;98935.81;;;17.17;100.00
10474;BME280;5284;50.446;7.904;2023-05-08T13:36:29;98936.41;;;18.02;100.00
10474;BME280;5284;50.446;7.904;2023-05-08T13:41:47;98930.03;;;18.35;100.00
10474;BME280;5284;50.446;7.904;2023-05-08T13:47:01;98934.63;;;18.27;100.00
10474;BME280;5284;50.446;7.904;2023-05-08T13:52:12;98926.25;;;18.92;100.00
10474;BME280;5284;50.446;7.904;2023-05-08T13:57:25;98919.91;;;19.31;100.00
10474;BME280;5284;50.446;7.904;2023-05-08T14:02:44;98922.38;;;20.02;100.00
10474;BME280;5284;50.446;7.904;2023-05-08T14:07:59;98917.75;;;20.10;100.00
10474;BME280;5284;50.446;7.904;2023-05-08T14:13:08;98920.50;;;19.72;100.00
10474;BME280;5284;50.446;7.904;2023-05-08T14:18:16;98918.50;;;19.74;100.00
10474;BME280;5284;50.446;7.904;2023-05-08T14:23:21;98910.25;;;19.90;100.00
10474;BME280;5284;50.446;7.904;2023-05-08T14:28:29;98911.59;;;19.33;100.00
10474;BME280;5284;50.446;7.904;2023-05-08T14:33:51;98909.28;;;19.52;100.00
10474;BME280;5284;50.446;7.904;2023-05-08T14:39:01;98896.88;;;18.81;100.00
10474;BME280;5284;50.446;7.904;2023-05-08T14:44:22;98900.88;;;19.01;100.00
10474;BME280;5284;50.446;7.904;2023-05-08T14:49:48;98895.94;;;18.18;100.00
10474;BME280;5284;50.446;7.904;2023-05-08T14:54:53;98896.44;;;18.46;100.00
10474;BME280;5284;50.446;7.904;2023-05-08T15:00:06;98894.25;;;18.33;100.00
10474;BME280;5284;50.446;7.904;2023-05-08T15:05:14;98897.75;;;17.78;100.00
10474;BME280;5284;50.446;7.904;2023-05-08T15:10:24;98894.53;;;17.58;100.00
10474;BME280;5284;50.446;7.904;2023-05-08T15:15:30;98898.09;;;17.83;100.00
10474;BME280;5284;50.446;7.904;2023-05-08T15:20:40;98889.84;;;17.84;100.00
10474;BME280;5284;50.446;7.904;2023-05-08T15:25:49;98883.25;;;17.63;100.00
10474;BME280;5284;50.446;7.904;2023-05-08T15:30:56;98887.63;;;17.56;100.00
10474;BME280;5284;50.446;7.904;2023-05-08T15:36:06;98887.44;;;17.65;100.00
10474;BME280;5284;50.446;7.904;2023-05-08T15:41:19;98886.97;;;17.86;100.00
10474;BME280;5284;50.446;7.904;2023-05-08T15:46:25;98885.94;;;17.63;100.00
10474;BME280;5284;50.446;7.904;2023-05-08T15:51:38;98885.63;;;17.74;100.00
10474;BME280;5284;50.446;7.904;2023-05-08T15:56:44;98881.28;;;18.29;100.00
10474;BME280;5284;50.446;7.904;2023-05-08T16:01:50;98878.88;;;18.57;100.00
10474;BME280;5284;50.446;7.904;2023-05-08T16:07:00;98879.88;;;19.11;100.00
10474;BME280;5284;50.446;7.904;2023-05-08T16:12:14;98886.09;;;19.58;100.00
10474;BME280;5284;50.446;7.904;2023-05-08T16:17:23;98877.28;;;23.67;86.22
10474;BME280;5284;50.446;7.904;2023-05-08T16:22:32;98882.75;;;27.28;59.78
10474;BME280;5284;50.446;7.904;2023-05-08T16:27:39;98879.41;;;29.14;54.17
10474;BME280;5284;50.446;7.904;2023-05-08T16:32:48;98862.34;;;24.88;63.90
10474;BME280;5284;50.446;7.904;2023-05-08T16:37:59;98862.34;;;22.49;88.64
10474;BME280;5284;50.446;7.904;2023-05-08T16:43:07;98857.53;;;23.52;80.35
10474;BME280;5284;50.446;7.904;2023-05-08T16:48:23;98858.91;;;26.92;59.99
10474;BME280;5284;50.446;7.904;2023-05-08T16:53:32;98859.72;;;26.44;59.74
10474;BME280;5284;50.446;7.904;2023-05-08T16:58:37;98864.50;;;25.49;63.81
10474;BME280;5284;50.446;7.904;2023-05-08T17:03:45;98857.09;;;24.41;70.67
10474;BME280;5284;50.446;7.904;2023-05-08T17:08:52;98852.25;;;24.04;75.89
10474;BME280;5284;50.446;7.904;2023-05-08T17:13:55;98859.13;;;25.17;66.28
10474;BME280;5284;50.446;7.904;2023-05-08T17:18:58;98855.03;;;25.52;66.43
10474;BME280;5284;50.446;7.904;2023-05-08T17:24:04;98860.56;;;26.14;61.77
10474;BME280;5284;50.446;7.904;2023-05-08T17:29:07;98856.44;;;22.73;79.23
10474;BME280;5284;50.446;7.904;2023-05-08T17:34:10;98859.44;;;21.67;90.79
10474;BME280;5284;50.446;7.904;2023-05-08T17:39:16;98864.41;;;20.99;95.67
10474;BME280;5284;50.446;7.904;2023-05-08T17:44:22;98861.56;;;20.26;100.00
10474;BME280;5284;50.446;7.904;2023-05-08T17:49:25;98864.00;;;19.77;100.00
10474;BME280;5284;50.446;7.904;2023-05-08T17:54:29;98854.47;;;19.28;100.00
10474;BME280;5284;50.446;7.904;2023-05-08T17:59:33;98839.34;;;18.64;100.00
10474;BME280;5284;50.446;7.904;2023-05-08T18:04:36;98857.78;;;18.37;100.00
10474;BME280;5284;50.446;7.904;2023-05-08T18:09:41;98852.91;;;18.33;100.00
10474;BME280;5284;50.446;7.904;2023-05-08T18:14:44;98858.13;;;18.02;100.00
10474;BME280;5284;50.446;7.904;2023-05-08T18:19:48;98863.88;;;17.75;100.00
10474;BME280;5284;50.446;7.904;2023-05-08T18:24:52;98867.00;;;17.39;100.00
10474;BME280;5284;50.446;7.904;2023-05-08T18:29:58;98875.53;;;17.26;100.00
10474;BME280;5284;50.446;7.904;2023-05-08T18:35:04;98881.84;;;17.01;100.00
10474;BME280;5284;50.446;7.904;2023-05-08T18:40:10;98876.69;;;16.83;100.00
10474;BME280;5284;50.446;7.904;2023-05-08T18:45:14;98872.72;;;16.61;100.00
10474;BME280;5284;50.446;7.904;2023-05-08T18:50:18;98879.31;;;16.41;100.00
10474;BME280;5284;50.446;7.904;2023-05-08T18:55:22;98876.13;;;16.20;100.00
10474;BME280;5284;50.446;7.904;2023-05-08T19:00:26;98876.84;;;16.05;100.00
10474;BME280;5284;50.446;7.904;2023-05-08T19:05:29;98875.50;;;15.83;100.00
10474;BME280;5284;50.446;7.904;2023-05-08T19:10:33;98876.56;;;15.55;100.00
10474;BME280;5284;50.446;7.904;2023-05-08T19:15:38;98866.50;;;15.40;100.00
10474;BME280;5284;50.446;7.904;2023-05-08T19:20:41;98860.06;;;15.24;100.00
10474;BME280;5284;50.446;7.904;2023-05-08T19:25:45;98863.13;;;15.11;100.00
10474;BME280;5284;50.446;7.904;2023-05-08T19:30:48;98864.72;;;15.04;100.00
10474;BME280;5284;50.446;7.904;2023-05-08T19:35:51;98855.97;;;15.02;100.00
10474;BME280;5284;50.446;7.904;2023-05-08T19:40:55;98853.72;;;14.98;100.00
10474;BME280;5284;50.446;7.904;2023-05-08T19:45:58;98858.41;;;14.96;100.00
10474;BME280;5284;50.446;7.904;2023-05-08T19:51:05;98861.78;;;14.98;100.00
10474;BME280;5284;50.446;7.904;2023-05-08T19:56:09;98868.59;;;14.92;100.00
10474;BME280;5284;50.446;7.904;2023-05-08T20:01:12;98859.59;;;14.84;100.00
10474;BME280;5284;50.446;7.904;2023-05-08T20:06:15;98864.41;;;14.80;100.00
10474;BME280;5284;50.446;7.904;2023-05-08T20:11:20;98857.97;;;14.73;100.00
10474;BME280;5284;50.446;7.904;2023-05-08T20:16:23;98847.38;;;14.62;100.00
10474;BME280;5284;50.446;7.904;2023-05-08T20:21:26;98855.75;;;14.59;100.00
10474;BME280;5284;50.446;7.904;2023-05-08T20:26:34;98842.22;;;14.51;100.00
10474;BME280;5284;50.446;7.904;2023-05-08T20:31:37;98837.75;;;14.42;100.00
10474;BME280;5284;50.446;7.904;2023-05-08T20:36:41;98833.81;;;14.27;100.00
10474;BME280;5284;50.446;7.904;2023-05-08T20:41:46;98837.38;;;14.18;100.00
10474;BME280;5284;50.446;7.904;2023-05-08T20:46:50;98844.88;;;14.05;100.00
10474;BME280;5284;50.446;7.904;2023-05-08T20:51:54;98848.56;;;13.95;100.00
10474;BME280;5284;50.446;7.904;2023-05-08T20:56:58;98852.66;;;13.89;100.00
10474;BME280;5284;50.446;7.904;2023-05-08T21:02:02;98851.53;;;13.82;100.00
10474;BME280;5284;50.446;7.904;2023-05-08T21:07:05;98860.03;;;13.78;100.00
10474;BME280;5284;50.446;7.904;2023-05-08T21:12:09;98854.81;;;13.76;100.00
10474;BME280;5284;50.446;7.904;2023-05-08T21:17:12;98855.94;;;13.65;100.00
10474;BME280;5284;50.446;7.904;2023-05-08T21:22:15;98849.16;;;13.61;100.00
10474;BME280;5284;50.446;7.904;2023-05-08T21:27:19;98851.00;;;13.60;100.00
10474;BME280;5284;50.446;7.904;2023-05-08T21:32:23;98839.16;;;13.63;100.00
10474;BME280;5284;50.446;7.904;2023-05-08T21:37:26;98840.69;;;13.65;100.00
10474;BME280;5284;50.446;7.904;2023-05-08T21:42:30;98831.25;;;13.61;100.00
10474;BME280;5284;50.446;7.904;2023-05-08T21:47:34;98828.56;;;13.61;100.00
10474;BME280;5284;50.446;7.904;2023-05-08T21:52:37;98826.75;;;13.62;100.00
10474;BME280;5284;50.446;7.904;2023-05-08T21:57:41;98811.09;;;13.57;100.00
10474;BME280;5284;50.446;7.904;2023-05-08T22:02:44;98814.88;;;13.55;100.00
10474;BME280;5284;50.446;7.904;2023-05-08T22:07:47;98807.84;;;13.54;100.00
10474;BME280;5284;50.446;7.904;2023-05-08T22:12:51;98802.75;;;13.51;100.00
10474;BME280;5284;50.446;7.904;2023-05-08T22:17:54;98798.09;;;13.43;100.00
10474;BME280;5284;50.446;7.904;2023-05-08T22:22:57;98796.97;;;13.36;100.00
10474;BME280;5284;50.446;7.904;2023-05-08T22:28:01;98789.38;;;13.32;100.00
10474;BME280;5284;50.446;7.904;2023-05-08T22:33:04;98787.25;;;13.26;100.00
10474;BME280;5284;50.446;7.904;2023-05-08T22:38:07;98783.31;;;13.20;100.00
10474;BME280;5284;50.446;7.904;2023-05-08T22:43:11;98792.06;;;13.13;100.00
10474;BME280;5284;50.446;7.904;2023-05-08T22:48:14;98780.91;;;13.08;100.00
10474;BME280;5284;50.446;7.904;2023-05-08T22:53:17;98776.84;;;13.04;100.00
10474;BME280;5284;50.446;7.904;2023-05-08T22:58:21;98770.50;;;13.05;100.00
10474;BME280;5284;50.446;7.904;2023-05-08T23:03:25;98777.13;;;13.01;100.00
10474;BME280;5284;50.446;7.904;2023-05-08T23:08:28;98772.19;;;13.06;100.00
10474;BME280;5284;50.446;7.904;2023-05-08T23:13:32;98765.97;;;13.05;100.00
10474;BME280;5284;50.446;7.904;2023-05-08T23:18:35;98757.38;;;13.02;100.00
10474;BME280;5284;50.446;7.904;2023-05-08T23:23:37;98756.69;;;13.00;100.00
10474;BME280;5284;50.446;7.904;2023-05-08T23:28:42;98752.59;;;12.96;100.00
10474;BME280;5284;50.446;7.904;2023-05-08T23:33:44;98749.91;;;12.96;100.00
10474;BME280;5284;50.446;7.904;2023-05-08T23:38:47;98745.28;;;12.98;100.00
10474;BME280;5284;50.446;7.904;2023-05-08T23:43:51;98737.66;;;13.03;100.00
10474;BME280;5284;50.446;7.904;2023-05-08T23:48:55;98738.38;;;13.05;100.00
10474;BME280;5284;50.446;7.904;2023-05-08T23:53:58;98722.84;;;13.08;100.00
10474;BME280;5284;50.446;7.904;2023-05-08T23:59:02;98731.31;;;13.13;100.00
